sensor_id;sensor_type;location;lat;lon;timestamp;P1;durP1;ratioP1;P2;durP2;ratioP2
67715;SDS011;54508;43.238;25.306;2023-05-07T00:00:09;8.13;;;4.40;;
67715;SDS011;54508;43.238;25.306;2023-05-07T00:02:36;5.30;;;3.80;;
67715;SDS011;54508;43.238;25.306;2023-05-07T00:05:02;8.13;;;4.28;;
67715;SDS011;54508;43.238;25.306;2023-05-07T00:07:28;6.47;;;4.32;;
67715;SDS011;54508;43.238;25.306;2023-05-07T00:09:54;6.57;;;4.20;;
67715;SDS011;54508;43.238;25.306;2023-05-07T00:12:20;5.43;;;4.15;;
67715;SDS011;54508;43.238;25.306;2023-05-07T00:14:45;5.73;;;4.37;;
67715;SDS011;54508;43.238;25.306;2023-05-07T00:17:11;6.50;;;3.90;;
67715;SDS011;54508;43.238;25.306;2023-05-07T00:19:36;5.80;;;4.47;;
67715;SDS011;54508;43.238;25.306;2023-05-07T00:22:02;5.10;;;4.27;;
67715;SDS011;54508;43.238;25.306;2023-05-07T00:24:27;6.43;;;4.70;;
67715;SDS011;54508;43.238;25.306;2023-05-07T00:26:53;5.77;;;4.47;;
67715;SDS011;54508;43.238;25.306;2023-05-07T00:29:18;4.78;;;3.92;;
67715;SDS011;54508;43.238;25.306;2023-05-07T00:31:44;6.00;;;4.37;;
67715;SDS011;54508;43.238;25.306;2023-05-07T00:34:09;6.87;;;4.47;;
67715;SDS011;54508;43.238;25.306;2023-05-07T00:36:35;5.40;;;4.43;;
67715;SDS011;54508;43.238;25.306;2023-05-07T00:39:00;6.25;;;4.18;;
67715;SDS011;54508;43.238;25.306;2023-05-07T00:41:28;5.43;;;3.63;;
67715;SDS011;54508;43.238;25.306;2023-05-07T00:43:55;6.20;;;4.28;;
67715;SDS011;54508;43.238;25.306;2023-05-07T00:46:21;6.32;;;3.90;;
67715;SDS011;54508;43.238;25.306;2023-05-07T00:48:47;5.70;;;3.78;;
67715;SDS011;54508;43.238;25.306;2023-05-07T00:51:13;4.82;;;4.05;;
67715;SDS011;54508;43.238;25.306;2023-05-07T00:53:38;6.00;;;4.18;;
67715;SDS011;54508;43.238;25.306;2023-05-07T00:56:04;5.87;;;4.30;;
67715;SDS011;54508;43.238;25.306;2023-05-07T00:58:31;6.70;;;4.25;;
67715;SDS011;54508;43.238;25.306;2023-05-07T01:00:57;6.05;;;4.70;;
67715;SDS011;54508;43.238;25.306;2023-05-07T01:03:23;6.80;;;3.70;;
67715;SDS011;54508;43.238;25.306;2023-05-07T01:05:48;6.18;;;4.25;;
67715;SDS011;54508;43.238;25.306;2023-05-07T01:08:15;5.70;;;4.03;;
67715;SDS011;54508;43.238;25.306;2023-05-07T01:10:41;5.93;;;3.80;;
67715;SDS011;54508;43.238;25.306;2023-05-07T01:13:08;4.45;;;3.92;;
67715;SDS011;54508;43.238;25.306;2023-05-07T01:15:35;5.37;;;3.43;;
67715;SDS011;54508;43.238;25.306;2023-05-07T01:18:01;5.40;;;3.85;;
67715;SDS011;54508;43.238;25.306;2023-05-07T01:20:27;4.10;;;3.70;;
67715;SDS011;54508;43.238;25.306;2023-05-07T01:22:53;5.05;;;3.75;;
67715;SDS011;54508;43.238;25.306;2023-05-07T01:25:21;8.50;;;4.47;;
67715;SDS011;54508;43.238;25.306;2023-05-07T01:27:47;5.47;;;4.10;;
67715;SDS011;54508;43.238;25.306;2023-05-07T01:30:12;5.33;;;4.10;;
67715;SDS011;54508;43.238;25.306;2023-05-07T01:33:20;5.40;;;3.80;;
67715;SDS011;54508;43.238;25.306;2023-05-07T01:35:36;5.63;;;3.72;;
67715;SDS011;54508;43.238;25.306;2023-05-07T01:38:04;5.68;;;4.07;;
67715;SDS011;54508;43.238;25.306;2023-05-07T01:40:31;6.55;;;4.38;;
67715;SDS011;54508;43.238;25.306;2023-05-07T01:42:56;5.43;;;4.10;;
67715;SDS011;54508;43.238;25.306;2023-05-07T01:45:22;6.90;;;3.97;;
67715;SDS011;54508;43.238;25.306;2023-05-07T01:47:48;4.80;;;3.80;;
67715;SDS011;54508;43.238;25.306;2023-05-07T01:50:14;5.18;;;3.47;;
67715;SDS011;54508;43.238;25.306;2023-05-07T01:52:41;5.40;;;3.80;;
67715;SDS011;54508;43.238;25.306;2023-05-07T01:55:06;5.63;;;3.67;;
67715;SDS011;54508;43.238;25.306;2023-05-07T01:57:32;5.70;;;3.83;;
67715;SDS011;54508;43.238;25.306;2023-05-07T01:59:57;5.60;;;3.92;;
67715;SDS011;54508;43.238;25.306;2023-05-07T02:02:23;5.77;;;4.27;;
67715;SDS011;54508;43.238;25.306;2023-05-07T02:04:48;5.43;;;4.03;;
67715;SDS011;54508;43.238;25.306;2023-05-07T02:07:14;5.03;;;3.77;;
67715;SDS011;54508;43.238;25.306;2023-05-07T02:09:39;6.35;;;4.22;;
67715;SDS011;54508;43.238;25.306;2023-05-07T02:12:05;5.03;;;3.60;;
67715;SDS011;54508;43.238;25.306;2023-05-07T02:14:30;4.90;;;3.80;;
67715;SDS011;54508;43.238;25.306;2023-05-07T02:16:56;4.70;;;3.97;;
67715;SDS011;54508;43.238;25.306;2023-05-07T02:19:21;6.78;;;3.97;;
67715;SDS011;54508;43.238;25.306;2023-05-07T02:21:47;6.22;;;3.70;;
67715;SDS011;54508;43.238;25.306;2023-05-07T02:24:12;6.77;;;3.80;;
67715;SDS011;54508;43.238;25.306;2023-05-07T02:26:39;5.82;;;4.10;;
67715;SDS011;54508;43.238;25.306;2023-05-07T02:29:05;5.97;;;3.97;;
67715;SDS011;54508;43.238;25.306;2023-05-07T02:31:31;6.22;;;3.83;;
67715;SDS011;54508;43.238;25.306;2023-05-07T02:33:58;5.88;;;3.80;;
67715;SDS011;54508;43.238;25.306;2023-05-07T02:36:24;6.22;;;3.95;;
67715;SDS011;54508;43.238;25.306;2023-05-07T02:38:50;5.22;;;3.60;;
67715;SDS011;54508;43.238;25.306;2023-05-07T02:41:15;4.85;;;4.05;;
67715;SDS011;54508;43.238;25.306;2023-05-07T02:43:41;4.47;;;3.40;;
67715;SDS011;54508;43.238;25.306;2023-05-07T02:46:07;5.03;;;3.70;;
67715;SDS011;54508;43.238;25.306;2023-05-07T02:48:33;5.60;;;4.00;;
67715;SDS011;54508;43.238;25.306;2023-05-07T02:50:59;5.57;;;3.60;;
67715;SDS011;54508;43.238;25.306;2023-05-07T02:53:25;5.80;;;3.95;;
67715;SDS011;54508;43.238;25.306;2023-05-07T02:55:54;5.10;;;4.00;;
67715;SDS011;54508;43.238;25.306;2023-05-07T02:58:20;4.90;;;3.67;;
67715;SDS011;54508;43.238;25.306;2023-05-07T03:00:46;5.47;;;3.77;;
67715;SDS011;54508;43.238;25.306;2023-05-07T03:03:11;5.95;;;4.15;;
67715;SDS011;54508;43.238;25.306;2023-05-07T03:05:37;4.87;;;3.70;;
67715;SDS011;54508;43.238;25.306;2023-05-07T03:08:02;5.57;;;4.00;;
67715;SDS011;54508;43.238;25.306;2023-05-07T03:10:29;4.88;;;3.38;;
67715;SDS011;54508;43.238;25.306;2023-05-07T03:12:54;3.72;;;3.05;;
67715;SDS011;54508;43.238;25.306;2023-05-07T03:15:20;5.60;;;3.60;;
67715;SDS011;54508;43.238;25.306;2023-05-07T03:17:46;6.20;;;3.70;;
67715;SDS011;54508;43.238;25.306;2023-05-07T03:20:12;7.22;;;4.05;;
67715;SDS011;54508;43.238;25.306;2023-05-07T03:22:38;5.53;;;3.80;;
67715;SDS011;54508;43.238;25.306;2023-05-07T03:25:04;6.00;;;3.97;;
67715;SDS011;54508;43.238;25.306;2023-05-07T03:27:30;4.75;;;3.50;;
67715;SDS011;54508;43.238;25.306;2023-05-07T03:29:55;5.23;;;3.67;;
67715;SDS011;54508;43.238;25.306;2023-05-07T03:32:20;4.50;;;3.38;;
67715;SDS011;54508;43.238;25.306;2023-05-07T03:34:46;5.10;;;3.97;;
67715;SDS011;54508;43.238;25.306;2023-05-07T03:37:11;5.27;;;3.80;;
67715;SDS011;54508;43.238;25.306;2023-05-07T03:39:37;4.20;;;3.80;;
67715;SDS011;54508;43.238;25.306;2023-05-07T03:42:02;5.03;;;3.80;;
67715;SDS011;54508;43.238;25.306;2023-05-07T03:44:28;4.72;;;3.78;;
67715;SDS011;54508;43.238;25.306;2023-05-07T03:46:54;4.47;;;3.23;;
67715;SDS011;54508;43.238;25.306;2023-05-07T03:49:20;4.97;;;3.70;;
67715;SDS011;54508;43.238;25.306;2023-05-07T03:51:46;6.90;;;3.90;;
67715;SDS011;54508;43.238;25.306;2023-05-07T03:54:11;5.20;;;4.10;;
67715;SDS011;54508;43.238;25.306;2023-05-07T03:56:36;5.40;;;3.50;;
67715;SDS011;54508;43.238;25.306;2023-05-07T03:59:02;4.60;;;3.80;;
67715;SDS011;54508;43.238;25.306;2023-05-07T04:01:28;5.30;;;4.03;;
67715;SDS011;54508;43.238;25.306;2023-05-07T04:03:53;4.17;;;3.77;;
67715;SDS011;54508;43.238;25.306;2023-05-07T04:06:19;6.25;;;4.15;;
67715;SDS011;54508;43.238;25.306;2023-05-07T04:08:44;6.68;;;3.95;;
67715;SDS011;54508;43.238;25.306;2023-05-07T04:11:10;5.57;;;3.83;;
67715;SDS011;54508;43.238;25.306;2023-05-07T04:13:35;4.67;;;3.53;;
67715;SDS011;54508;43.238;25.306;2023-05-07T04:16:01;4.90;;;3.67;;
67715;SDS011;54508;43.238;25.306;2023-05-07T04:18:28;4.90;;;3.58;;
67715;SDS011;54508;43.238;25.306;2023-05-07T04:20:53;5.78;;;3.78;;
67715;SDS011;54508;43.238;25.306;2023-05-07T04:23:19;4.57;;;3.63;;
67715;SDS011;54508;43.238;25.306;2023-05-07T04:25:44;4.47;;;3.60;;
67715;SDS011;54508;43.238;25.306;2023-05-07T04:28:10;4.63;;;3.63;;
67715;SDS011;54508;43.238;25.306;2023-05-07T04:30:36;4.57;;;3.75;;
67715;SDS011;54508;43.238;25.306;2023-05-07T04:33:02;5.22;;;3.88;;
67715;SDS011;54508;43.238;25.306;2023-05-07T04:35:27;5.67;;;4.10;;
67715;SDS011;54508;43.238;25.306;2023-05-07T04:37:53;4.93;;;3.67;;
67715;SDS011;54508;43.238;25.306;2023-05-07T04:40:18;4.95;;;3.60;;
67715;SDS011;54508;43.238;25.306;2023-05-07T04:42:44;6.93;;;3.70;;
67715;SDS011;54508;43.238;25.306;2023-05-07T04:45:10;4.20;;;3.57;;
67715;SDS011;54508;43.238;25.306;2023-05-07T04:47:35;4.80;;;4.10;;
67715;SDS011;54508;43.238;25.306;2023-05-07T04:50:01;5.50;;;3.80;;
67715;SDS011;54508;43.238;25.306;2023-05-07T04:52:27;5.03;;;3.93;;
67715;SDS011;54508;43.238;25.306;2023-05-07T04:54:52;3.63;;;3.27;;
67715;SDS011;54508;43.238;25.306;2023-05-07T04:57:17;4.40;;;3.67;;
67715;SDS011;54508;43.238;25.306;2023-05-07T04:59:43;4.90;;;3.47;;
67715;SDS011;54508;43.238;25.306;2023-05-07T05:02:12;4.47;;;3.47;;
67715;SDS011;54508;43.238;25.306;2023-05-07T05:04:37;5.22;;;3.40;;
67715;SDS011;54508;43.238;25.306;2023-05-07T05:07:03;5.00;;;3.87;;
67715;SDS011;54508;43.238;25.306;2023-05-07T05:09:29;6.50;;;3.85;;
67715;SDS011;54508;43.238;25.306;2023-05-07T05:11:55;4.22;;;3.72;;
67715;SDS011;54508;43.238;25.306;2023-05-07T05:14:20;6.53;;;3.77;;
67715;SDS011;54508;43.238;25.306;2023-05-07T05:16:46;4.57;;;3.63;;
67715;SDS011;54508;43.238;25.306;2023-05-07T05:19:11;5.55;;;4.03;;
67715;SDS011;54508;43.238;25.306;2023-05-07T05:21:37;4.57;;;3.60;;
67715;SDS011;54508;43.238;25.306;2023-05-07T05:24:02;4.77;;;3.60;;
67715;SDS011;54508;43.238;25.306;2023-05-07T05:26:28;6.40;;;4.13;;
67715;SDS011;54508;43.238;25.306;2023-05-07T05:28:53;5.50;;;3.78;;
67715;SDS011;54508;43.238;25.306;2023-05-07T05:31:18;4.37;;;3.43;;
67715;SDS011;54508;43.238;25.306;2023-05-07T05:33:44;4.70;;;3.50;;
67715;SDS011;54508;43.238;25.306;2023-05-07T05:36:10;5.07;;;3.70;;
67715;SDS011;54508;43.238;25.306;2023-05-07T05:38:35;5.53;;;3.70;;
67715;SDS011;54508;43.238;25.306;2023-05-07T05:41:01;5.97;;;3.53;;
67715;SDS011;54508;43.238;25.306;2023-05-07T05:43:27;4.10;;;3.53;;
67715;SDS011;54508;43.238;25.306;2023-05-07T05:45:52;7.23;;;4.27;;
67715;SDS011;54508;43.238;25.306;2023-05-07T05:48:17;5.47;;;3.45;;
67715;SDS011;54508;43.238;25.306;2023-05-07T05:50:43;5.63;;;3.55;;
67715;SDS011;54508;43.238;25.306;2023-05-07T05:53:08;4.60;;;3.70;;
67715;SDS011;54508;43.238;25.306;2023-05-07T05:55:34;3.97;;;3.50;;
67715;SDS011;54508;43.238;25.306;2023-05-07T05:58:00;6.97;;;3.88;;
67715;SDS011;54508;43.238;25.306;2023-05-07T06:00:26;4.10;;;3.25;;
67715;SDS011;54508;43.238;25.306;2023-05-07T06:02:52;3.92;;;3.20;;
67715;SDS011;54508;43.238;25.306;2023-05-07T06:05:17;4.50;;;3.60;;
67715;SDS011;54508;43.238;25.306;2023-05-07T06:07:43;5.25;;;4.00;;
67715;SDS011;54508;43.238;25.306;2023-05-07T06:10:08;5.30;;;4.00;;
67715;SDS011;54508;43.238;25.306;2023-05-07T06:12:34;5.33;;;3.60;;
67715;SDS011;54508;43.238;25.306;2023-05-07T06:14:59;4.90;;;3.60;;
67715;SDS011;54508;43.238;25.306;2023-05-07T06:17:25;4.25;;;3.75;;
67715;SDS011;54508;43.238;25.306;2023-05-07T06:19:50;5.73;;;3.60;;
67715;SDS011;54508;43.238;25.306;2023-05-07T06:22:16;4.60;;;3.80;;
67715;SDS011;54508;43.238;25.306;2023-05-07T06:24:41;5.63;;;3.53;;
67715;SDS011;54508;43.238;25.306;2023-05-07T06:27:07;4.37;;;3.40;;
67715;SDS011;54508;43.238;25.306;2023-05-07T06:29:32;4.00;;;3.60;;
67715;SDS011;54508;43.238;25.306;2023-05-07T06:32:08;5.13;;;3.67;;
67715;SDS011;54508;43.238;25.306;2023-05-07T06:34:35;6.10;;;3.75;;
67715;SDS011;54508;43.238;25.306;2023-05-07T06:37:00;4.43;;;3.80;;
67715;SDS011;54508;43.238;25.306;2023-05-07T06:39:26;4.43;;;3.53;;
67715;SDS011;54508;43.238;25.306;2023-05-07T06:41:51;4.70;;;3.37;;
67715;SDS011;54508;43.238;25.306;2023-05-07T06:44:18;5.15;;;3.40;;
67715;SDS011;54508;43.238;25.306;2023-05-07T06:46:43;4.87;;;3.47;;
67715;SDS011;54508;43.238;25.306;2023-05-07T06:49:09;4.70;;;3.13;;
67715;SDS011;54508;43.238;25.306;2023-05-07T06:51:34;3.77;;;3.40;;
67715;SDS011;54508;43.238;25.306;2023-05-07T06:53:59;5.23;;;3.70;;
67715;SDS011;54508;43.238;25.306;2023-05-07T06:56:25;4.73;;;3.80;;
67715;SDS011;54508;43.238;25.306;2023-05-07T06:58:50;4.97;;;3.45;;
67715;SDS011;54508;43.238;25.306;2023-05-07T07:01:16;5.13;;;4.07;;
67715;SDS011;54508;43.238;25.306;2023-05-07T07:03:41;6.43;;;3.70;;
67715;SDS011;54508;43.238;25.306;2023-05-07T07:06:07;4.73;;;3.67;;
67715;SDS011;54508;43.238;25.306;2023-05-07T07:08:32;5.97;;;3.80;;
67715;SDS011;54508;43.238;25.306;2023-05-07T07:10:58;4.35;;;3.53;;
67715;SDS011;54508;43.238;25.306;2023-05-07T07:13:23;4.27;;;3.40;;
67715;SDS011;54508;43.238;25.306;2023-05-07T07:15:49;4.37;;;3.87;;
67715;SDS011;54508;43.238;25.306;2023-05-07T07:18:14;5.95;;;3.80;;
67715;SDS011;54508;43.238;25.306;2023-05-07T07:20:40;4.93;;;3.60;;
67715;SDS011;54508;43.238;25.306;2023-05-07T07:23:05;5.40;;;4.20;;
67715;SDS011;54508;43.238;25.306;2023-05-07T07:25:31;5.65;;;3.65;;
67715;SDS011;54508;43.238;25.306;2023-05-07T07:27:57;5.07;;;3.10;;
67715;SDS011;54508;43.238;25.306;2023-05-07T07:30:22;4.77;;;4.10;;
67715;SDS011;54508;43.238;25.306;2023-05-07T07:32:48;5.25;;;3.97;;
67715;SDS011;54508;43.238;25.306;2023-05-07T07:35:13;4.37;;;3.87;;
67715;SDS011;54508;43.238;25.306;2023-05-07T07:37:39;5.73;;;3.93;;
67715;SDS011;54508;43.238;25.306;2023-05-07T07:40:04;4.63;;;3.90;;
67715;SDS011;54508;43.238;25.306;2023-05-07T07:42:30;4.85;;;3.58;;
67715;SDS011;54508;43.238;25.306;2023-05-07T07:44:56;4.30;;;3.45;;
67715;SDS011;54508;43.238;25.306;2023-05-07T07:47:22;5.38;;;3.85;;
67715;SDS011;54508;43.238;25.306;2023-05-07T07:49:47;4.03;;;3.60;;
67715;SDS011;54508;43.238;25.306;2023-05-07T07:52:13;5.50;;;3.22;;
67715;SDS011;54508;43.238;25.306;2023-05-07T07:54:38;4.57;;;3.77;;
67715;SDS011;54508;43.238;25.306;2023-05-07T07:57:04;4.90;;;3.20;;
67715;SDS011;54508;43.238;25.306;2023-05-07T07:59:30;5.78;;;3.20;;
67715;SDS011;54508;43.238;25.306;2023-05-07T08:01:55;5.57;;;3.60;;
67715;SDS011;54508;43.238;25.306;2023-05-07T08:04:22;6.43;;;3.88;;
67715;SDS011;54508;43.238;25.306;2023-05-07T08:06:47;4.20;;;3.38;;
67715;SDS011;54508;43.238;25.306;2023-05-07T08:09:13;3.97;;;3.50;;
67715;SDS011;54508;43.238;25.306;2023-05-07T08:11:39;6.07;;;3.53;;
67715;SDS011;54508;43.238;25.306;2023-05-07T08:14:04;6.93;;;3.67;;
67715;SDS011;54508;43.238;25.306;2023-05-07T08:16:30;4.53;;;3.43;;
67715;SDS011;54508;43.238;25.306;2023-05-07T08:18:55;4.40;;;3.50;;
67715;SDS011;54508;43.238;25.306;2023-05-07T08:21:21;4.15;;;3.75;;
67715;SDS011;54508;43.238;25.306;2023-05-07T08:23:47;5.47;;;3.58;;
67715;SDS011;54508;43.238;25.306;2023-05-07T08:26:13;5.53;;;3.70;;
67715;SDS011;54508;43.238;25.306;2023-05-07T08:28:38;4.37;;;3.53;;
67715;SDS011;54508;43.238;25.306;2023-05-07T08:31:04;5.25;;;3.72;;
67715;SDS011;54508;43.238;25.306;2023-05-07T08:33:30;4.63;;;3.93;;
67715;SDS011;54508;43.238;25.306;2023-05-07T08:35:56;5.10;;;3.25;;
67715;SDS011;54508;43.238;25.306;2023-05-07T08:38:21;5.43;;;3.70;;
67715;SDS011;54508;43.238;25.306;2023-05-07T08:40:46;5.03;;;3.70;;
67715;SDS011;54508;43.238;25.306;2023-05-07T08:43:13;5.10;;;3.70;;
67715;SDS011;54508;43.238;25.306;2023-05-07T08:45:39;5.55;;;4.10;;
67715;SDS011;54508;43.238;25.306;2023-05-07T08:48:08;3.63;;;3.15;;
67715;SDS011;54508;43.238;25.306;2023-05-07T08:50:37;4.90;;;3.30;;
67715;SDS011;54508;43.238;25.306;2023-05-07T08:53:03;4.43;;;3.47;;
67715;SDS011;54508;43.238;25.306;2023-05-07T08:55:29;4.43;;;3.00;;
67715;SDS011;54508;43.238;25.306;2023-05-07T08:57:55;5.63;;;3.80;;
67715;SDS011;54508;43.238;25.306;2023-05-07T09:00:20;4.83;;;3.27;;
67715;SDS011;54508;43.238;25.306;2023-05-07T09:02:46;4.40;;;3.10;;
67715;SDS011;54508;43.238;25.306;2023-05-07T09:05:11;4.30;;;3.33;;
67715;SDS011;54508;43.238;25.306;2023-05-07T09:07:37;3.77;;;3.07;;
67715;SDS011;54508;43.238;25.306;2023-05-07T09:10:03;4.53;;;3.20;;
67715;SDS011;54508;43.238;25.306;2023-05-07T09:12:29;4.53;;;3.50;;
67715;SDS011;54508;43.238;25.306;2023-05-07T09:14:55;5.03;;;3.38;;
67715;SDS011;54508;43.238;25.306;2023-05-07T09:17:20;4.00;;;3.00;;
67715;SDS011;54508;43.238;25.306;2023-05-07T09:19:46;7.27;;;3.67;;
67715;SDS011;54508;43.238;25.306;2023-05-07T09:22:12;4.30;;;3.40;;
67715;SDS011;54508;43.238;25.306;2023-05-07T09:24:38;5.10;;;3.05;;
67715;SDS011;54508;43.238;25.306;2023-05-07T09:27:05;3.75;;;2.83;;
67715;SDS011;54508;43.238;25.306;2023-05-07T09:29:31;5.07;;;3.72;;
67715;SDS011;54508;43.238;25.306;2023-05-07T09:32:05;5.20;;;3.10;;
67715;SDS011;54508;43.238;25.306;2023-05-07T09:34:31;4.85;;;3.10;;
67715;SDS011;54508;43.238;25.306;2023-05-07T09:36:58;3.67;;;3.28;;
67715;SDS011;54508;43.238;25.306;2023-05-07T09:39:25;4.97;;;3.42;;
67715;SDS011;54508;43.238;25.306;2023-05-07T09:41:51;5.60;;;3.57;;
67715;SDS011;54508;43.238;25.306;2023-05-07T09:44:19;4.18;;;3.50;;
67715;SDS011;54508;43.238;25.306;2023-05-07T09:46:45;3.65;;;3.00;;
67715;SDS011;54508;43.238;25.306;2023-05-07T09:49:15;4.00;;;3.60;;
67715;SDS011;54508;43.238;25.306;2023-05-07T09:51:48;4.55;;;3.35;;
67715;SDS011;54508;43.238;25.306;2023-05-07T09:54:15;3.20;;;2.80;;
67715;SDS011;54508;43.238;25.306;2023-05-07T09:56:42;5.15;;;3.22;;
67715;SDS011;54508;43.238;25.306;2023-05-07T09:59:09;5.65;;;3.22;;
67715;SDS011;54508;43.238;25.306;2023-05-07T10:01:36;4.30;;;3.05;;
67715;SDS011;54508;43.238;25.306;2023-05-07T10:04:02;4.88;;;3.63;;
67715;SDS011;54508;43.238;25.306;2023-05-07T10:06:29;4.25;;;3.13;;
67715;SDS011;54508;43.238;25.306;2023-05-07T10:08:55;7.28;;;3.20;;
67715;SDS011;54508;43.238;25.306;2023-05-07T10:11:21;5.43;;;3.40;;
67715;SDS011;54508;43.238;25.306;2023-05-07T10:13:47;3.53;;;3.10;;
67715;SDS011;54508;43.238;25.306;2023-05-07T10:16:13;3.22;;;2.80;;
67715;SDS011;54508;43.238;25.306;2023-05-07T10:18:40;4.07;;;2.70;;
67715;SDS011;54508;43.238;25.306;2023-05-07T10:21:39;4.60;;;3.08;;
67715;SDS011;54508;43.238;25.306;2023-05-07T10:24:00;4.28;;;3.10;;
67715;SDS011;54508;43.238;25.306;2023-05-07T10:26:31;3.63;;;2.92;;
67715;SDS011;54508;43.238;25.306;2023-05-07T10:29:02;4.65;;;2.95;;
67715;SDS011;54508;43.238;25.306;2023-05-07T10:31:37;3.75;;;2.90;;
67715;SDS011;54508;43.238;25.306;2023-05-07T10:34:22;4.35;;;3.28;;
67715;SDS011;54508;43.238;25.306;2023-05-07T10:36:49;3.72;;;3.10;;
67715;SDS011;54508;43.238;25.306;2023-05-07T10:39:15;4.10;;;3.08;;
67715;SDS011;54508;43.238;25.306;2023-05-07T10:41:41;3.88;;;3.10;;
67715;SDS011;54508;43.238;25.306;2023-05-07T10:44:06;4.00;;;2.90;;
67715;SDS011;54508;43.238;25.306;2023-05-07T10:46:32;3.50;;;2.67;;
67715;SDS011;54508;43.238;25.306;2023-05-07T10:51:26;3.60;;;2.80;;
67715;SDS011;54508;43.238;25.306;2023-05-07T10:56:39;3.50;;;2.78;;
67715;SDS011;54508;43.238;25.306;2023-05-07T11:04:31;5.35;;;3.30;;
67715;SDS011;54508;43.238;25.306;2023-05-07T11:15:02;5.23;;;2.97;;
67715;SDS011;54508;43.238;25.306;2023-05-07T11:17:32;3.50;;;2.88;;
67715;SDS011;54508;43.238;25.306;2023-05-07T11:19:59;4.75;;;2.90;;
67715;SDS011;54508;43.238;25.306;2023-05-07T11:25:04;4.68;;;2.92;;
67715;SDS011;54508;43.238;25.306;2023-05-07T11:27:30;3.67;;;2.90;;
67715;SDS011;54508;43.238;25.306;2023-05-07T11:29:56;4.28;;;2.63;;
67715;SDS011;54508;43.238;25.306;2023-05-07T11:32:26;4.40;;;2.90;;
67715;SDS011;54508;43.238;25.306;2023-05-07T11:34:52;3.35;;;2.60;;
67715;SDS011;54508;43.238;25.306;2023-05-07T11:37:21;4.00;;;2.80;;
67715;SDS011;54508;43.238;25.306;2023-05-07T11:39:48;3.35;;;2.83;;
67715;SDS011;54508;43.238;25.306;2023-05-07T11:44:55;3.15;;;2.78;;
67715;SDS011;54508;43.238;25.306;2023-05-07T11:47:20;4.13;;;2.50;;
67715;SDS011;54508;43.238;25.306;2023-05-07T11:49:47;3.67;;;2.83;;
67715;SDS011;54508;43.238;25.306;2023-05-07T11:52:14;3.90;;;2.92;;
67715;SDS011;54508;43.238;25.306;2023-05-07T11:54:39;3.20;;;2.45;;
67715;SDS011;54508;43.238;25.306;2023-05-07T11:57:05;3.97;;;2.60;;
67715;SDS011;54508;43.238;25.306;2023-05-07T11:59:41;3.10;;;2.70;;
67715;SDS011;54508;43.238;25.306;2023-05-07T12:02:09;2.87;;;2.27;;
67715;SDS011;54508;43.238;25.306;2023-05-07T12:04:35;3.40;;;2.80;;
67715;SDS011;54508;43.238;25.306;2023-05-07T12:07:01;4.38;;;2.70;;
67715;SDS011;54508;43.238;25.306;2023-05-07T12:09:26;3.37;;;2.77;;
67715;SDS011;54508;43.238;25.306;2023-05-07T12:11:52;3.37;;;2.67;;
67715;SDS011;54508;43.238;25.306;2023-05-07T12:14:18;4.43;;;2.88;;
67715;SDS011;54508;43.238;25.306;2023-05-07T12:16:43;4.10;;;2.40;;
67715;SDS011;54508;43.238;25.306;2023-05-07T12:19:10;3.78;;;2.58;;
67715;SDS011;54508;43.238;25.306;2023-05-07T12:21:37;5.35;;;2.70;;
67715;SDS011;54508;43.238;25.306;2023-05-07T12:24:03;3.05;;;2.75;;
67715;SDS011;54508;43.238;25.306;2023-05-07T12:26:29;4.32;;;2.70;;
67715;SDS011;54508;43.238;25.306;2023-05-07T12:28:56;2.80;;;2.60;;
67715;SDS011;54508;43.238;25.306;2023-05-07T12:31:22;4.40;;;2.58;;
67715;SDS011;54508;43.238;25.306;2023-05-07T12:33:48;4.17;;;2.80;;
67715;SDS011;54508;43.238;25.306;2023-05-07T12:36:13;3.77;;;2.60;;
67715;SDS011;54508;43.238;25.306;2023-05-07T12:38:39;3.17;;;2.47;;
67715;SDS011;54508;43.238;25.306;2023-05-07T12:41:08;3.83;;;2.38;;
67715;SDS011;54508;43.238;25.306;2023-05-07T12:43:35;4.00;;;2.65;;
67715;SDS011;54508;43.238;25.306;2023-05-07T12:46:01;5.25;;;2.95;;
67715;SDS011;54508;43.238;25.306;2023-05-07T12:48:29;3.92;;;2.70;;
67715;SDS011;54508;43.238;25.306;2023-05-07T12:50:55;3.80;;;2.70;;
67715;SDS011;54508;43.238;25.306;2023-05-07T12:53:22;4.00;;;2.63;;
67715;SDS011;54508;43.238;25.306;2023-05-07T12:55:50;3.92;;;2.83;;
67715;SDS011;54508;43.238;25.306;2023-05-07T12:58:17;4.55;;;3.05;;
67715;SDS011;54508;43.238;25.306;2023-05-07T13:00:45;4.25;;;2.53;;
67715;SDS011;54508;43.238;25.306;2023-05-07T13:03:16;3.50;;;2.72;;
67715;SDS011;54508;43.238;25.306;2023-05-07T13:06:06;2.90;;;2.60;;
67715;SDS011;54508;43.238;25.306;2023-05-07T13:08:38;3.05;;;2.42;;
67715;SDS011;54508;43.238;25.306;2023-05-07T13:11:07;4.80;;;3.22;;
67715;SDS011;54508;43.238;25.306;2023-05-07T13:13:33;3.63;;;2.80;;
67715;SDS011;54508;43.238;25.306;2023-05-07T13:16:00;3.92;;;2.80;;
67715;SDS011;54508;43.238;25.306;2023-05-07T13:18:26;5.25;;;2.83;;
67715;SDS011;54508;43.238;25.306;2023-05-07T13:20:52;3.85;;;2.90;;
67715;SDS011;54508;43.238;25.306;2023-05-07T13:23:18;4.72;;;2.88;;
67715;SDS011;54508;43.238;25.306;2023-05-07T13:25:44;2.65;;;2.40;;
67715;SDS011;54508;43.238;25.306;2023-05-07T13:28:09;4.27;;;2.90;;
67715;SDS011;54508;43.238;25.306;2023-05-07T13:30:35;4.50;;;3.03;;
67715;SDS011;54508;43.238;25.306;2023-05-07T13:33:01;4.13;;;2.47;;
67715;SDS011;54508;43.238;25.306;2023-05-07T13:35:26;3.10;;;2.50;;
67715;SDS011;54508;43.238;25.306;2023-05-07T13:37:52;4.60;;;3.08;;
67715;SDS011;54508;43.238;25.306;2023-05-07T13:40:18;5.03;;;2.90;;
67715;SDS011;54508;43.238;25.306;2023-05-07T13:42:44;3.63;;;2.55;;
67715;SDS011;54508;43.238;25.306;2023-05-07T13:45:10;3.78;;;2.65;;
67715;SDS011;54508;43.238;25.306;2023-05-07T13:47:35;3.90;;;2.30;;
67715;SDS011;54508;43.238;25.306;2023-05-07T13:50:01;3.20;;;2.67;;
67715;SDS011;54508;43.238;25.306;2023-05-07T13:52:26;4.60;;;2.40;;
67715;SDS011;54508;43.238;25.306;2023-05-07T13:54:52;3.50;;;2.50;;
67715;SDS011;54508;43.238;25.306;2023-05-07T13:57:18;3.73;;;2.93;;
67715;SDS011;54508;43.238;25.306;2023-05-07T13:59:43;3.95;;;2.50;;
67715;SDS011;54508;43.238;25.306;2023-05-07T14:02:09;4.47;;;2.70;;
67715;SDS011;54508;43.238;25.306;2023-05-07T14:04:34;4.57;;;2.67;;
67715;SDS011;54508;43.238;25.306;2023-05-07T14:07:00;4.37;;;2.67;;
67715;SDS011;54508;43.238;25.306;2023-05-07T14:09:25;3.83;;;2.50;;
67715;SDS011;54508;43.238;25.306;2023-05-07T14:11:51;4.75;;;2.83;;
67715;SDS011;54508;43.238;25.306;2023-05-07T14:14:17;3.70;;;2.60;;
67715;SDS011;54508;43.238;25.306;2023-05-07T14:16:43;3.88;;;2.50;;
67715;SDS011;54508;43.238;25.306;2023-05-07T14:19:10;3.22;;;2.63;;
67715;SDS011;54508;43.238;25.306;2023-05-07T14:21:36;3.75;;;2.70;;
67715;SDS011;54508;43.238;25.306;2023-05-07T14:24:01;3.28;;;2.53;;
67715;SDS011;54508;43.238;25.306;2023-05-07T14:26:26;3.67;;;2.50;;
67715;SDS011;54508;43.238;25.306;2023-05-07T14:28:52;4.10;;;2.70;;
67715;SDS011;54508;43.238;25.306;2023-05-07T14:31:20;4.43;;;2.92;;
67715;SDS011;54508;43.238;25.306;2023-05-07T14:33:46;3.45;;;2.28;;
67715;SDS011;54508;43.238;25.306;2023-05-07T14:36:11;3.07;;;2.47;;
67715;SDS011;54508;43.238;25.306;2023-05-07T14:38:36;3.90;;;2.43;;
67715;SDS011;54508;43.238;25.306;2023-05-07T14:41:02;3.42;;;2.40;;
67715;SDS011;54508;43.238;25.306;2023-05-07T14:43:27;4.15;;;2.40;;
67715;SDS011;54508;43.238;25.306;2023-05-07T14:45:53;3.40;;;2.60;;
67715;SDS011;54508;43.238;25.306;2023-05-07T14:48:18;4.23;;;2.40;;
67715;SDS011;54508;43.238;25.306;2023-05-07T14:50:46;4.17;;;2.63;;